Time;durP1;ratioP1;P1;durP2;ratioP2;P2;SDS_P1;SDS_P2;PMS_P1;PMS_P2;Temp;Humidity;BMP_temperature;BMP_pressure;BME280_temperature;BME280_humidity;BME280_pressure;Samples;Min_cycle;Max_cycle;Signal;HPM_P1;HPM_P2
2021/03/30 00:00:15;;;;;;;5.30;2.33;;;10.70;90.30;18.50;100877.00;;;;5033970;28;20581;-65
2021/03/30 00:02:41;;;;;;;4.35;2.20;;;10.70;90.30;18.40;100872.00;;;;5051487;28;20210;-65
2021/03/30 00:05:08;;;;;;;4.47;1.87;;;10.70;90.40;18.40;100883.00;;;;5034208;28;21013;-65
2021/03/30 00:07:34;;;;;;;3.90;1.90;;;10.70;90.40;18.30;100879.00;;;;5051323;28;20213;-65
2021/03/30 00:09:59;;;;;;;4.00;2.00;;;10.70;90.30;18.40;100877.00;;;;5051148;28;20179;-65
2021/03/30 00:12:25;;;;;;;3.93;2.03;;;10.70;90.40;18.40;100875.00;;;;5050904;28;20210;-65
2021/03/30 00:14:51;;;;;;;3.90;2.10;;;10.70;90.40;18.60;100867.00;;;;5052892;28;20436;-66
2021/03/30 00:17:16;;;;;;;3.80;1.97;;;10.70;90.40;18.50;100864.00;;;;5050565;28;20212;-65
2021/03/30 00:19:42;;;;;;;3.67;2.10;;;10.70;90.40;18.40;100872.00;;;;5050536;28;20206;-65
2021/03/30 00:22:08;;;;;;;4.10;1.90;;;10.70;90.40;18.50;100865.00;;;;5052659;28;20202;-65
2021/03/30 00:24:33;;;;;;;4.00;2.10;;;10.70;90.40;18.30;100868.00;;;;5051017;28;20179;-65
2021/03/30 00:26:59;;;;;;;3.70;1.90;;;10.70;90.40;18.40;100866.00;;;;5051552;28;20202;-65
2021/03/30 00:29:25;;;;;;;4.10;2.37;;;10.70;90.40;18.40;100865.00;;;;5034460;28;20178;-65
2021/03/30 00:31:51;;;;;;;4.80;2.43;;;10.70;90.50;18.50;100866.00;;;;5035685;28;20284;-65
2021/03/30 00:34:16;;;;;;;3.97;2.40;;;10.70;90.40;18.50;100866.00;;;;5071461;28;20248;-65
2021/03/30 00:36:42;;;;;;;4.37;2.33;;;10.70;90.40;18.50;100866.00;;;;5037508;28;20288;-65
2021/03/30 00:39:08;;;;;;;3.60;1.93;;;10.70;90.50;18.40;100865.00;;;;5072226;28;20661;-65
2021/03/30 00:41:41;;;;;;;5.40;2.37;;;10.70;90.50;18.60;100862.00;;;;5036934;28;20434;-65
2021/03/30 00:44:12;;;;;;;4.53;2.20;;;10.70;90.50;18.50;100867.00;;;;5037301;28;20190;-64
2021/03/30 00:46:39;;;;;;;3.73;2.03;;;10.70;90.50;18.60;100873.00;;;;5037483;28;21061;-64
2021/03/30 00:49:05;;;;;;;4.40;2.25;;;10.60;90.40;18.60;100869.00;;;;5053606;28;20444;-65
2021/03/30 00:51:31;;;;;;;4.30;2.20;;;10.60;90.50;18.60;100870.00;;;;5071132;28;20625;-65
2021/03/30 00:53:57;;;;;;;4.37;2.30;;;10.60;90.50;18.50;100864.00;;;;5072201;28;20476;-65
2021/03/30 00:56:23;;;;;;;4.47;2.20;;;10.60;90.50;18.60;100861.00;;;;5053757;28;20227;-65
2021/03/30 00:58:49;;;;;;;3.80;2.10;;;10.60;90.50;18.60;100873.00;;;;5020529;28;20611;-65
2021/03/30 01:01:15;;;;;;;5.20;2.20;;;10.60;90.50;18.50;100865.00;;;;5036750;28;20426;-65
2021/03/30 01:03:40;;;;;;;3.97;2.17;;;10.60;90.50;18.60;100870.00;;;;5053693;28;20448;-65
2021/03/30 01:06:06;;;;;;;4.20;2.07;;;10.70;91.00;18.50;100877.00;;;;5036309;28;20212;-65
2021/03/30 01:08:57;;;;;;;3.60;1.80;;;10.60;90.50;18.50;100871.00;;;;5053360;28;20310;-65
2021/03/30 01:12:05;;;;;;;4.30;2.20;;;10.60;90.50;18.30;100879.00;;;;5038282;28;20267;-64
2021/03/30 01:14:47;;;;;;;4.18;2.10;;;10.60;90.50;18.40;100876.00;;;;5054027;28;20177;-65
2021/03/30 01:17:47;;;;;;;4.28;2.58;;;10.60;90.50;18.50;100880.00;;;;5052869;28;20195;-64
2021/03/30 01:20:50;;;;;;;4.10;2.20;;;10.70;90.60;18.40;100874.00;;;;5070880;28;20219;-65
2021/03/30 01:23:46;;;;;;;4.15;2.10;;;10.60;90.50;18.30;100878.00;;;;5070885;28;20242;-65
2021/03/30 01:26:17;;;;;;;4.45;2.25;;;10.60;90.50;18.40;100880.00;;;;5054054;28;20197;-65
2021/03/30 01:29:11;;;;;;;3.92;1.92;;;10.60;90.50;18.40;100873.00;;;;5053862;28;20188;-65
2021/03/30 01:32:04;;;;;;;4.32;2.15;;;10.60;90.50;18.50;100876.00;;;;5070766;28;20732;-65
2021/03/30 01:34:29;;;;;;;4.10;2.22;;;10.60;90.50;18.40;100884.00;;;;5024157;28;20233;-65
2021/03/30 01:36:57;;;;;;;3.70;1.80;;;10.60;90.50;18.50;100883.00;;;;5052266;28;20272;-65
2021/03/30 01:39:24;;;;;;;4.40;2.40;;;10.60;90.50;18.60;100882.00;;;;5053368;28;20266;-65
2021/03/30 01:41:50;;;;;;;3.60;1.80;;;10.60;90.50;18.60;100889.00;;;;5036226;28;20284;-65
2021/03/30 01:44:20;;;;;;;4.30;2.00;;;10.60;90.50;18.60;100884.00;;;;5036278;28;20268;-65
2021/03/30 01:46:46;;;;;;;4.38;2.25;;;10.60;90.50;18.40;100886.00;;;;5019423;28;20546;-65
2021/03/30 01:49:13;;;;;;;4.15;2.38;;;10.60;90.60;18.50;100887.00;;;;5036140;28;20189;-65
2021/03/30 01:51:40;;;;;;;3.87;2.10;;;10.60;90.50;18.50;100889.00;;;;5035633;28;20197;-65
2021/03/30 01:54:06;;;;;;;3.80;2.10;;;10.60;90.50;18.60;100877.00;;;;5019616;28;20432;-65
2021/03/30 01:56:32;;;;;;;4.33;2.40;;;10.60;90.60;18.50;100889.00;;;;5035981;28;20262;-65
2021/03/30 01:58:59;;;;;;;4.07;2.20;;;10.60;90.60;18.60;100881.00;;;;5019306;28;20841;-65
2021/03/30 02:01:24;;;;;;;3.47;1.80;;;10.60;90.60;18.60;100874.00;;;;5034757;28;20725;-65
2021/03/30 02:03:50;;;;;;;3.90;1.83;;;10.60;90.60;18.50;100875.00;;;;5019172;28;20181;-65
2021/03/30 02:06:16;;;;;;;3.97;2.47;;;10.60;90.60;18.60;100872.00;;;;5035477;28;20205;-65
2021/03/30 02:08:42;;;;;;;3.87;1.93;;;10.60;90.60;18.60;100867.00;;;;5035600;28;20268;-66
2021/03/30 02:11:07;;;;;;;4.30;2.47;;;10.60;90.60;18.40;100873.00;;;;5035710;28;20259;-65
2021/03/30 02:13:41;;;;;;;4.10;2.37;;;10.60;90.60;18.50;100873.00;;;;5052118;28;20427;-65
2021/03/30 02:16:18;;;;;;;4.13;1.98;;;10.60;90.60;18.50;100873.00;;;;5037805;28;20433;-65
2021/03/30 02:19:11;;;;;;;3.87;2.20;;;10.60;90.60;18.50;100870.00;;;;5070356;28;20205;-65
2021/03/30 02:21:49;;;;;;;4.15;2.15;;;10.60;90.60;18.40;100876.00;;;;5039108;28;20459;-65
2021/03/30 02:24:15;;;;;;;3.95;1.90;;;10.60;91.00;18.50;100876.00;;;;5036944;28;20188;-65
2021/03/30 02:26:45;;;;;;;4.00;2.17;;;10.60;90.60;18.40;100874.00;;;;5018849;28;20571;-65
2021/03/30 02:29:15;;;;;;;3.50;1.85;;;10.60;90.60;18.50;100868.00;;;;5035677;28;20423;-64
2021/03/30 02:31:41;;;;;;;4.13;1.90;;;10.60;90.60;18.50;100873.00;;;;5036117;28;20198;-65
2021/03/30 02:34:07;;;;;;;4.00;2.10;;;10.60;90.70;18.50;100879.00;;;;5018338;28;20242;-65
2021/03/30 02:36:33;;;;;;;4.50;2.60;;;10.60;90.60;18.60;100870.00;;;;5019003;28;20830;-65
2021/03/30 02:39:08;;;;;;;5.17;2.43;;;10.60;90.60;18.60;100868.00;;;;5018643;28;20250;-65
2021/03/30 02:41:35;;;;;;;3.75;1.65;;;10.60;90.60;18.60;100884.00;;;;5051350;28;20545;-65
2021/03/30 02:44:01;;;;;;;3.92;2.00;;;10.60;90.70;18.50;100877.00;;;;5035267;28;20184;-65
2021/03/30 02:46:27;;;;;;;4.50;2.30;;;10.60;90.70;18.40;100872.00;;;;5051528;28;20201;-65
2021/03/30 02:48:53;;;;;;;3.93;1.90;;;10.60;90.70;18.50;100880.00;;;;5034827;28;20432;-66
2021/03/30 02:51:19;;;;;;;3.90;2.17;;;10.60;90.70;18.50;100877.00;;;;5035024;28;20459;-65
2021/03/30 02:53:44;;;;;;;3.43;1.70;;;10.60;90.70;18.50;100882.00;;;;5034061;28;20609;-65
2021/03/30 02:56:10;;;;;;;3.50;1.97;;;10.60;90.70;18.50;100876.00;;;;5035150;28;20197;-65
2021/03/30 02:58:36;;;;;;;3.73;2.00;;;10.60;90.70;18.30;100864.00;;;;5017869;28;20209;-65
2021/03/30 03:01:02;;;;;;;3.90;1.95;;;10.60;90.70;18.30;100866.00;;;;5035065;28;20216;-65
2021/03/30 03:03:32;;;;;;;4.10;2.17;;;10.60;90.70;18.50;100857.00;;;;5051873;28;20177;-66
2021/03/30 03:06:01;;;;;;;3.88;2.20;;;10.60;90.70;18.50;100860.00;;;;5036504;28;20602;-65
2021/03/30 03:08:27;;;;;;;4.05;2.15;;;10.60;90.70;18.40;100858.00;;;;5050896;28;20199;-65
2021/03/30 03:10:53;;;;;;;3.95;1.85;;;10.50;90.70;18.30;100865.00;;;;5035368;28;20622;-65
2021/03/30 03:13:19;;;;;;;4.13;2.43;;;10.50;90.70;18.50;100862.00;;;;5019853;28;20276;-65
2021/03/30 03:15:45;;;;;;;3.57;2.00;;;10.60;90.70;18.40;100871.00;;;;5039358;28;20220;-65
2021/03/30 03:18:11;;;;;;;3.85;1.60;;;10.50;90.70;18.50;100877.00;;;;5038431;28;20224;-65
2021/03/30 03:20:38;;;;;;;4.60;2.37;;;10.50;90.70;18.40;100870.00;;;;5022352;28;20189;-64
2021/03/30 03:23:04;;;;;;;4.20;2.20;;;10.50;90.70;18.40;100874.00;;;;5038392;28;20252;-64
2021/03/30 03:25:29;;;;;;;4.03;2.23;;;10.50;90.70;18.40;100868.00;;;;5039164;28;20554;-65
2021/03/30 03:27:55;;;;;;;4.23;2.03;;;10.50;90.70;18.50;100865.00;;;;5073071;28;20199;-65
2021/03/30 03:30:23;;;;;;;4.00;1.90;;;10.50;90.70;18.50;100867.00;;;;5038804;28;20193;-65
2021/03/30 03:32:49;;;;;;;3.65;1.85;;;10.50;90.70;18.50;100870.00;;;;5037669;28;20211;-65
2021/03/30 03:35:14;;;;;;;3.60;1.87;;;10.50;90.70;18.40;100874.00;;;;5055511;28;20651;-65
2021/03/30 03:37:47;;;;;;;4.40;1.80;;;10.50;90.70;18.40;100874.00;;;;5054794;28;20209;-65
2021/03/30 03:40:14;;;;;;;4.10;2.25;;;10.50;90.70;18.50;100869.00;;;;5055247;28;20733;-65
2021/03/30 03:42:40;;;;;;;4.05;2.10;;;10.50;90.70;18.60;100857.00;;;;5037961;28;20240;-65
2021/03/30 03:45:08;;;;;;;3.83;1.97;;;10.50;90.70;18.50;100871.00;;;;5022193;28;20208;-65
2021/03/30 03:47:34;;;;;;;4.47;1.73;;;10.50;90.80;18.40;100868.00;;;;5054387;28;20624;-65
2021/03/30 03:50:02;;;;;;;3.90;2.00;;;10.50;90.80;18.20;100880.00;;;;5037767;28;20200;-65
2021/03/30 03:52:30;;;;;;;4.38;2.08;;;10.50;90.80;18.30;100865.00;;;;5055221;28;20430;-64
2021/03/30 03:54:57;;;;;;;4.20;2.35;;;10.50;90.80;18.40;100868.00;;;;5038745;28;20247;-64
2021/03/30 03:57:33;;;;;;;3.60;2.00;;;10.50;90.80;18.30;100864.00;;;;5038075;28;20259;-64
2021/03/30 03:59:59;;;;;;;3.72;1.98;;;10.50;90.80;18.20;100858.00;;;;5038567;28;20266;-64
2021/03/30 04:02:56;;;;;;;4.50;2.40;;;10.50;90.80;18.20;100864.00;;;;5038483;28;20197;-64
2021/03/30 04:05:26;;;;;;;4.93;2.40;;;10.50;90.80;18.20;100868.00;;;;5041900;28;20189;-63
2021/03/30 04:07:59;;;;;;;4.30;2.10;;;10.50;90.80;18.30;100866.00;;;;5038168;28;20181;-63
2021/03/30 04:10:27;;;;;;;4.22;2.15;;;10.50;90.80;18.30;100871.00;;;;5022060;28;20191;-64
2021/03/30 04:12:53;;;;;;;3.55;2.03;;;10.50;90.90;18.20;100857.00;;;;5037739;28;20186;-64
2021/03/30 04:15:21;;;;;;;4.20;2.40;;;10.50;90.90;18.20;100864.00;;;;5037960;28;20189;-64
2021/03/30 04:17:47;;;;;;;4.57;2.22;;;10.50;90.90;18.30;100874.00;;;;5038596;28;20193;-64
2021/03/30 04:20:17;;;;;;;3.60;2.10;;;10.50;90.90;18.40;100873.00;;;;5036911;28;20686;-64
2021/03/30 04:22:55;;;;;;;4.10;2.20;;;10.50;90.90;18.30;100875.00;;;;5038041;28;20467;-64
2021/03/30 04:25:22;;;;;;;4.00;2.13;;;10.50;90.90;18.40;100863.00;;;;5039257;28;20208;-64
2021/03/30 04:27:48;;;;;;;4.57;2.30;;;10.50;90.90;18.30;100864.00;;;;5054382;28;20467;-64
2021/03/30 04:30:14;;;;;;;4.80;2.37;;;10.50;90.90;18.30;100874.00;;;;5053850;28;20553;-65
2021/03/30 04:32:40;;;;;;;4.10;2.33;;;10.50;91.00;18.30;100862.00;;;;5054061;28;20497;-64
2021/03/30 04:35:06;;;;;;;3.63;2.00;;;10.50;91.00;18.30;100875.00;;;;5036877;28;20262;-65
2021/03/30 04:37:32;;;;;;;5.50;2.80;;;10.50;90.90;18.30;100876.00;;;;5053504;28;20438;-64
2021/03/30 04:39:58;;;;;;;4.67;2.70;;;10.50;91.00;18.40;100874.00;;;;5053130;28;20482;-65
2021/03/30 04:42:24;;;;;;;4.53;2.30;;;10.50;91.00;18.20;100877.00;;;;5054374;28;20671;-64
2021/03/30 04:44:49;;;;;;;4.05;2.15;;;10.50;91.00;18.20;100873.00;;;;5020536;28;20193;-65
2021/03/30 04:47:15;;;;;;;4.30;2.40;;;10.50;91.00;18.20;100880.00;;;;5071871;28;20208;-64
2021/03/30 04:49:41;;;;;;;3.37;1.83;;;10.50;91.00;18.00;100875.00;;;;5071280;28;20182;-64
2021/03/30 04:52:07;;;;;;;3.93;2.00;;;10.50;91.00;18.00;100875.00;;;;5037365;28;20503;-64
2021/03/30 04:54:33;;;;;;;3.90;2.30;;;10.50;91.00;18.20;100884.00;;;;5070996;28;20185;-64
2021/03/30 04:56:58;;;;;;;4.27;2.40;;;10.50;91.00;18.20;100887.00;;;;5037339;28;20948;-64
2021/03/30 04:59:24;;;;;;;4.30;2.60;;;10.50;91.00;18.20;100877.00;;;;5037127;28;20228;-64
2021/03/30 05:01:50;;;;;;;5.20;2.80;;;10.50;91.00;18.30;100882.00;;;;5037126;28;20204;-64
2021/03/30 05:04:17;;;;;;;4.23;2.50;;;10.50;91.00;18.20;100885.00;;;;5052662;28;20189;-65
2021/03/30 05:06:43;;;;;;;4.05;2.22;;;10.50;91.00;18.20;100886.00;;;;5071439;28;20683;-64
2021/03/30 05:09:09;;;;;;;4.10;2.10;;;10.50;91.00;18.20;100889.00;;;;5070893;28;20196;-64
2021/03/30 05:11:34;;;;;;;4.20;2.27;;;10.50;91.00;18.30;100893.00;;;;5071491;28;20205;-64
2021/03/30 05:14:00;;;;;;;4.30;2.43;;;10.50;91.10;18.20;100884.00;;;;5053220;28;20177;-64
2021/03/30 05:16:26;;;;;;;4.03;2.20;;;10.40;91.00;18.20;100882.00;;;;5053114;28;20211;-63
2021/03/30 05:18:52;;;;;;;4.40;2.50;;;10.50;91.10;18.20;100890.00;;;;5052873;28;20197;-63
2021/03/30 05:21:18;;;;;;;4.40;2.37;;;10.50;91.10;18.10;100897.00;;;;5070646;28;20215;-63
2021/03/30 05:23:44;;;;;;;5.07;2.63;;;10.50;91.10;18.20;100883.00;;;;5070605;28;20181;-64
2021/03/30 05:26:10;;;;;;;3.97;2.33;;;10.50;91.10;18.30;100895.00;;;;5053223;28;20776;-64
2021/03/30 05:28:35;;;;;;;4.23;2.53;;;10.50;91.10;18.30;100896.00;;;;5070725;28;20193;-64
2021/03/30 05:31:01;;;;;;;4.07;2.43;;;10.50;91.10;18.20;100900.00;;;;5052723;28;20197;-64
2021/03/30 05:33:27;;;;;;;6.57;2.77;;;10.50;91.10;18.30;100906.00;;;;5070953;28;20232;-64
2021/03/30 05:35:52;;;;;;;5.47;2.67;;;10.50;91.10;18.00;100906.00;;;;5070189;28;20197;-64
2021/03/30 05:38:18;;;;;;;4.27;2.60;;;10.50;91.10;18.00;100898.00;;;;5070652;28;20650;-65
2021/03/30 05:40:44;;;;;;;4.77;2.67;;;10.50;91.10;17.90;100910.00;;;;5052993;28;20213;-64
2021/03/30 05:43:39;;;;;;;3.78;2.17;;;10.50;91.00;18.10;100909.00;;;;5044062;28;20614;-64
2021/03/30 05:46:05;;;;;;;4.95;2.40;;;10.50;91.10;18.00;100912.00;;;;5036339;28;20193;-64
2021/03/30 05:48:32;;;;;;;4.00;2.27;;;10.50;91.10;18.10;100914.00;;;;5071066;28;20272;-65
2021/03/30 05:50:58;;;;;;;4.20;2.50;;;10.40;91.00;18.10;100908.00;;;;5052236;28;20430;-64
2021/03/30 05:53:24;;;;;;;4.55;2.75;;;10.40;91.00;18.00;100907.00;;;;5036213;28;20187;-64
2021/03/30 05:55:56;;;;;;;4.30;2.70;;;10.50;91.10;18.10;100912.00;;;;5052398;28;20571;-64
2021/03/30 05:58:22;;;;;;;5.28;2.67;;;10.50;91.00;18.10;100902.00;;;;5036881;28;20182;-64
2021/03/30 06:00:48;;;;;;;4.83;2.60;;;10.40;91.00;18.10;100907.00;;;;5036049;28;20212;-65
2021/03/30 06:03:16;;;;;;;4.70;2.43;;;10.50;91.00;18.20;100914.00;;;;5036419;28;20410;-64
2021/03/30 06:05:42;;;;;;;4.22;2.53;;;10.50;91.00;18.10;100917.00;;;;5034980;28;20260;-64
2021/03/30 06:08:08;;;;;;;4.23;2.77;;;10.50;91.00;18.10;100928.00;;;;5035822;28;20432;-65
2021/03/30 06:10:35;;;;;;;4.53;2.80;;;10.50;91.00;18.20;100926.00;;;;5052064;28;20961;-64
2021/03/30 06:13:04;;;;;;;4.72;2.55;;;10.50;91.00;18.10;100920.00;;;;5036453;28;20185;-64
2021/03/30 06:15:35;;;;;;;4.55;2.50;;;10.40;90.90;18.30;100923.00;;;;5035498;28;20686;-64
2021/03/30 06:18:16;;;;;;;4.15;2.55;;;10.50;91.00;18.20;100933.00;;;;5035692;28;20209;-64
2021/03/30 06:20:41;;;;;;;4.50;2.70;;;10.40;90.90;18.10;100924.00;;;;5037184;28;20182;-64
2021/03/30 06:23:07;;;;;;;4.07;2.20;;;10.40;90.90;18.20;100931.00;;;;5052319;28;20330;-65
2021/03/30 06:25:37;;;;;;;5.18;2.92;;;10.50;91.00;17.90;100928.00;;;;5035268;28;20176;-64
2021/03/30 06:28:30;;;;;;;4.47;2.70;;;10.40;90.90;17.80;100928.00;;;;5070226;28;20177;-65
2021/03/30 06:31:11;;;;;;;4.22;2.63;;;10.50;91.00;17.90;100939.00;;;;5037373;28;20849;-64
2021/03/30 06:33:51;;;;;;;4.45;2.92;;;10.50;90.90;17.80;100930.00;;;;5035784;28;20588;-64
2021/03/30 06:36:24;;;;;;;3.97;2.65;;;10.50;91.00;17.90;100938.00;;;;5019243;28;20313;-65
2021/03/30 06:38:58;;;;;;;4.60;2.80;;;10.50;91.30;17.80;100943.00;;;;5069747;28;20208;-64
2021/03/30 06:41:40;;;;;;;4.40;2.50;;;10.50;90.90;17.90;100947.00;;;;5069467;28;20201;-64
2021/03/30 06:44:26;;;;;;;4.40;2.60;;;10.50;90.90;17.80;100950.00;;;;5070360;28;20184;-64
2021/03/30 06:47:13;;;;;;;5.15;2.90;;;10.50;90.90;18.00;100950.00;;;;5039143;28;20559;-64
2021/03/30 06:49:55;;;;;;;4.20;2.50;;;10.50;90.90;17.80;100947.00;;;;5051940;28;20679;-65
2021/03/30 06:52:26;;;;;;;3.88;2.10;;;10.50;90.90;17.90;100958.00;;;;5036074;28;20352;-65
2021/03/30 06:55:12;;;;;;;4.28;2.35;;;10.50;90.90;17.70;100957.00;;;;5035427;28;20660;-64
2021/03/30 06:57:46;;;;;;;4.20;2.50;;;10.50;90.90;17.70;100954.00;;;;5037189;28;20209;-65
2021/03/30 07:00:20;;;;;;;4.30;2.40;;;10.50;90.90;17.60;100960.00;;;;5018114;28;20221;-65
2021/03/30 07:02:52;;;;;;;5.75;2.60;;;10.50;90.90;17.90;100962.00;;;;5052050;28;20197;-65
2021/03/30 07:05:37;;;;;;;4.20;2.50;;;10.50;90.90;17.90;100950.00;;;;5035220;28;20193;-65
2021/03/30 07:08:14;;;;;;;4.32;2.40;;;10.50;90.90;17.70;100954.00;;;;5036775;28;20177;-65
2021/03/30 07:10:43;;;;;;;4.93;2.63;;;10.50;90.90;17.70;100947.00;;;;5035768;28;20298;-65
2021/03/30 07:13:11;;;;;;;5.18;2.20;;;10.50;90.90;17.60;100949.00;;;;5035398;28;20181;-65
2021/03/30 07:15:37;;;;;;;4.35;2.30;;;10.50;90.90;17.60;100950.00;;;;5034476;28;20186;-64
2021/03/30 07:18:31;;;;;;;4.43;2.58;;;10.50;90.90;17.70;100949.00;;;;5034985;28;20255;-65
2021/03/30 07:21:11;;;;;;;4.20;2.47;;;10.50;90.90;17.70;100958.00;;;;5034904;28;20391;-65
2021/03/30 07:23:38;;;;;;;4.40;2.80;;;10.50;90.90;17.50;100952.00;;;;5053411;28;20230;-65
2021/03/30 07:26:19;;;;;;;6.15;2.50;;;10.50;90.90;17.70;100958.00;;;;5034714;28;20229;-65
2021/03/30 07:28:50;;;;;;;5.05;2.67;;;10.50;90.90;17.70;100947.00;;;;5052370;28;20181;-65
2021/03/30 07:31:30;;;;;;;4.35;2.25;;;10.50;90.90;17.80;100946.00;;;;5034366;28;20747;-65
2021/03/30 07:34:00;;;;;;;4.63;2.40;;;10.50;90.90;17.80;100950.00;;;;5018876;28;20237;-65
2021/03/30 07:36:28;;;;;;;4.88;2.50;;;10.50;90.90;17.80;100939.00;;;;5051366;28;20734;-65
2021/03/30 07:39:00;;;;;;;4.03;2.30;;;10.50;90.90;17.80;100948.00;;;;5018143;28;20213;-65
2021/03/30 07:41:26;;;;;;;4.97;2.50;;;10.50;90.90;17.80;100939.00;;;;5035381;28;20201;-65
2021/03/30 07:43:52;;;;;;;4.80;2.13;;;10.50;90.90;17.80;100950.00;;;;5051484;28;20192;-65
2021/03/30 07:46:20;;;;;;;4.07;2.40;;;10.50;90.90;17.60;100954.00;;;;5034587;28;20294;-65
2021/03/30 07:48:46;;;;;;;4.10;2.08;;;10.50;90.90;17.80;100951.00;;;;5035240;28;20760;-65
2021/03/30 07:51:12;;;;;;;4.53;2.20;;;10.50;90.90;17.80;100945.00;;;;5030652;28;20303;-65
2021/03/30 07:53:55;;;;;;;4.00;2.13;;;10.50;90.90;18.00;100955.00;;;;5034012;28;20531;-65
2021/03/30 07:56:23;;;;;;;4.20;2.20;;;10.50;90.90;17.80;100959.00;;;;5034620;28;20212;-65
2021/03/30 07:58:49;;;;;;;5.10;2.45;;;10.50;90.90;17.90;100956.00;;;;5069635;28;20215;-65
2021/03/30 08:01:20;;;;;;;4.75;2.95;;;10.50;90.90;17.80;100966.00;;;;5054149;28;20529;-65
2021/03/30 08:03:47;;;;;;;4.55;2.53;;;10.50;90.90;17.90;100959.00;;;;5038860;28;20186;-65
2021/03/30 08:06:20;;;;;;;4.20;2.30;;;10.50;90.90;18.00;100960.00;;;;5035853;28;20220;-65
2021/03/30 08:09:06;;;;;;;4.68;2.50;;;10.50;90.90;17.80;100968.00;;;;5055144;28;20282;-65
2021/03/30 08:11:39;;;;;;;4.25;2.38;;;10.60;91.00;17.70;100977.00;;;;5053810;28;20225;-65
2021/03/30 08:14:37;;;;;;;3.97;2.28;;;10.60;91.00;18.00;100973.00;;;;5072151;28;20177;-65
2021/03/30 08:17:04;;;;;;;4.20;2.17;;;10.50;90.90;17.90;100975.00;;;;5033322;28;20220;-65
2021/03/30 08:19:30;;;;;;;3.90;2.40;;;10.50;90.90;17.90;100982.00;;;;5021076;28;20296;-65
2021/03/30 08:22:01;;;;;;;4.53;2.40;;;10.50;90.90;17.80;100975.00;;;;5052904;28;20620;-65
2021/03/30 08:24:45;;;;;;;3.80;2.33;;;10.50;90.90;17.90;100976.00;;;;5072190;28;20174;-65
2021/03/30 08:27:32;;;;;;;4.70;2.60;;;10.50;90.90;17.90;100980.00;;;;5071152;28;20426;-65
2021/03/30 08:29:59;;;;;;;4.25;2.00;;;10.60;91.00;17.80;100961.00;;;;5072066;28;20440;-65
2021/03/30 08:32:27;;;;;;;4.47;2.80;;;10.60;91.00;17.90;100975.00;;;;5019368;28;20233;-65
2021/03/30 08:34:53;;;;;;;4.50;2.45;;;10.60;91.00;18.10;100980.00;;;;5021518;28;20245;-65
2021/03/30 08:37:20;;;;;;;4.57;2.70;;;10.60;91.00;17.90;100976.00;;;;5019496;28;20233;-65
2021/03/30 08:39:46;;;;;;;3.80;1.90;;;10.60;91.00;18.20;100974.00;;;;5037245;28;20279;-65
2021/03/30 08:42:18;;;;;;;4.33;2.23;;;10.60;91.00;18.00;100978.00;;;;5020497;28;20589;-65
2021/03/30 08:44:59;;;;;;;4.35;2.53;;;10.60;91.00;17.90;100976.00;;;;5036537;28;20394;-65
2021/03/30 08:47:47;;;;;;;3.70;2.40;;;10.60;91.00;17.90;100981.00;;;;5033972;28;20263;-65
2021/03/30 08:50:16;;;;;;;4.28;2.40;;;10.60;91.00;17.80;100978.00;;;;5033791;28;20181;-65
2021/03/30 08:52:42;;;;;;;4.20;2.47;;;10.60;91.00;18.10;100980.00;;;;5050331;28;20198;-66
2021/03/30 08:55:12;;;;;;;5.93;3.33;;;10.60;91.00;18.50;100947.00;;;;5033302;28;20194;-67
2021/03/30 08:57:38;;;;;;;8.67;4.80;;;10.60;91.10;18.40;100962.00;;;;5032670;28;20236;-66
2021/03/30 09:00:12;;;;;;;7.70;5.17;;;10.70;91.50;18.50;100959.00;;;;5033396;28;21146;-67
2021/03/30 09:02:37;;;;;;;11.55;7.03;;;10.70;91.70;18.60;100961.00;;;;5033257;28;20464;-66
2021/03/30 09:05:17;;;;;;;11.97;7.23;;;10.80;92.00;18.70;100962.00;;;;5051470;28;20185;-66
2021/03/30 09:07:47;;;;;;;11.10;6.78;;;10.90;92.20;18.90;100957.00;;;;5015650;28;20420;-66
2021/03/30 09:10:14;;;;;;;11.77;7.30;;;10.90;92.40;19.00;100959.00;;;;5032518;28;20250;-66
2021/03/30 09:12:40;;;;;;;14.00;7.70;;;11.00;92.60;19.10;100958.00;;;;5049062;28;20462;-66
2021/03/30 09:15:11;;;;;;;13.07;7.50;;;11.00;92.60;19.10;100963.00;;;;5050572;28;20407;-66
2021/03/30 09:18:00;;;;;;;10.00;6.90;;;11.10;92.70;19.20;100963.00;;;;5048446;28;20716;-66
2021/03/30 09:20:28;;;;;;;16.03;7.60;;;11.10;92.70;19.20;100970.00;;;;5046590;28;20927;-66
2021/03/30 09:22:57;;;;;;;12.80;6.87;;;11.10;92.70;19.20;100960.00;;;;5046869;28;20414;-66
2021/03/30 09:25:40;;;;;;;14.73;7.50;;;11.20;92.60;19.40;100970.00;;;;5031837;28;20407;-66
2021/03/30 09:28:16;;;;;;;10.60;6.80;;;11.20;92.50;19.40;100958.00;;;;5032840;28;20863;-66
2021/03/30 09:30:43;;;;;;;10.90;6.93;;;11.20;92.30;19.50;100962.00;;;;5014636;28;20463;-66
2021/03/30 09:33:10;;;;;;;10.10;6.80;;;11.30;92.30;19.50;100964.00;;;;5011060;28;20602;-66
2021/03/30 09:35:35;;;;;;;14.10;7.20;;;11.30;92.30;19.60;100953.00;;;;5028705;28;20420;-66
2021/03/30 09:38:03;;;;;;;13.57;6.83;;;11.30;92.30;19.50;100952.00;;;;5044527;28;20804;-66
2021/03/30 09:40:47;;;;;;;12.43;6.80;;;11.40;92.40;19.70;100948.00;;;;5012873;28;20221;-66
2021/03/30 09:43:14;;;;;;;11.17;7.07;;;11.40;92.40;19.70;100943.00;;;;5028109;28;20441;-66
2021/03/30 09:45:41;;;;;;;10.00;6.57;;;11.50;92.50;19.80;100947.00;;;;5034928;28;20939;-67
2021/03/30 09:48:13;;;;;;;11.80;6.20;;;11.50;92.60;19.80;100952.00;;;;5014971;28;20427;-66
2021/03/30 09:50:44;;;;;;;12.00;7.07;;;11.50;92.50;19.80;100943.00;;;;5016223;28;20529;-66
2021/03/30 09:53:10;;;;;;;12.10;7.50;;;11.60;92.60;19.70;100944.00;;;;5048620;28;20432;-66
2021/03/30 09:55:37;;;;;;;10.23;7.30;;;11.60;92.50;19.90;100939.00;;;;4999342;28;20426;-66
2021/03/30 09:58:10;;;;;;;12.87;6.53;;;11.70;92.50;19.90;100933.00;;;;5031464;28;20440;-66
2021/03/30 10:00:46;;;;;;;9.83;7.03;;;11.70;92.40;20.00;100909.00;;;;5032434;28;20786;-66
2021/03/30 10:03:13;;;;;;;16.47;8.10;;;11.70;92.30;20.00;100931.00;;;;5015906;28;20402;-66
2021/03/30 10:05:40;;;;;;;13.40;8.00;;;11.70;92.30;20.00;100933.00;;;;5032090;28;20411;-66
2021/03/30 10:08:23;;;;;;;11.47;6.87;;;11.80;92.30;20.10;100936.00;;;;5031394;28;20433;-67
2021/03/30 10:10:51;;;;;;;12.10;6.27;;;11.80;92.30;20.20;100930.00;;;;5033061;28;20419;-66
2021/03/30 10:13:27;;;;;;;11.87;6.80;;;11.90;92.30;20.20;100919.00;;;;5031886;28;20415;-66
2021/03/30 10:15:55;;;;;;;13.80;7.10;;;11.90;92.20;20.20;100927.00;;;;5048734;28;20560;-66
2021/03/30 10:18:22;;;;;;;11.73;7.33;;;11.90;92.00;20.30;100923.00;;;;5014997;28;20432;-67
2021/03/30 10:20:53;;;;;;;12.97;8.83;;;12.00;91.80;20.40;100921.00;;;;5015519;28;20852;-66
2021/03/30 10:23:22;;;;;;;12.40;8.37;;;12.00;91.50;20.40;100919.00;;;;5030171;28;20436;-67
2021/03/30 10:25:49;;;;;;;13.30;8.60;;;12.00;91.30;20.40;100917.00;;;;5048454;28;20456;-67
2021/03/30 10:28:35;;;;;;;13.13;8.40;;;12.10;91.20;20.50;100914.00;;;;5014533;28;20436;-67
2021/03/30 10:31:22;;;;;;;16.87;8.20;;;12.10;91.00;20.60;100893.00;;;;5048646;28;20446;-67
2021/03/30 10:33:49;;;;;;;13.23;8.27;;;12.10;90.90;20.50;100907.00;;;;5047716;28;20571;-67
2021/03/30 10:36:16;;;;;;;13.90;8.40;;;12.20;91.00;20.60;100902.00;;;;5032177;28;20464;-67
2021/03/30 10:39:06;;;;;;;12.63;8.93;;;12.20;90.90;20.60;100910.00;;;;5046868;28;20474;-68
2021/03/30 10:41:40;;;;;;;14.60;10.27;;;12.20;90.80;20.70;100900.00;;;;5047569;28;20452;-67
2021/03/30 10:44:07;;;;;;;14.73;8.13;;;12.30;90.70;20.70;100890.00;;;;5049272;28;20436;-67
2021/03/30 10:46:44;;;;;;;17.03;9.10;;;12.30;90.70;20.70;100894.00;;;;5018256;28;20475;-67
2021/03/30 10:49:11;;;;;;;11.03;7.93;;;12.30;90.60;20.80;100897.00;;;;4995434;28;20792;-67
2021/03/30 10:51:41;;;;;;;12.37;8.50;;;12.40;90.60;20.70;100891.00;;;;5011093;28;20432;-67
2021/03/30 10:54:09;;;;;;;15.73;8.57;;;12.40;90.60;20.90;100890.00;;;;5011589;28;20415;-67
2021/03/30 10:56:35;;;;;;;11.40;8.43;;;12.50;90.60;20.80;100884.00;;;;4995967;28;20726;-67
2021/03/30 10:59:10;;;;;;;14.47;9.13;;;12.50;90.50;20.90;100889.00;;;;5011202;28;20501;-68